Time;durP1;ratioP1;P1;durP2;ratioP2;P2;SDS_P1;SDS_P2;PMS_P1;PMS_P2;Temp;Humidity;BMP_temperature;BMP_pressure;BME280_temperature;BME280_humidity;BME280_pressure;Samples;Min_cycle;Max_cycle;Signal;HPM_P1;HPM_P2
2023/05/24 00:01:01;;;;;;;14.82;7.53;;;13.80;99.90;;;;;;5012001;28;20003;-76
2023/05/24 00:03:29;;;;;;;15.38;7.78;;;13.80;99.90;;;;;;5011872;28;20418;-77
2023/05/24 00:06:05;;;;;;;13.13;7.43;;;13.80;99.90;;;;;;5012098;28;20045;-78
2023/05/24 00:08:32;;;;;;;13.73;7.60;;;13.70;99.90;;;;;;4990380;28;20089;-77
2023/05/24 00:10:58;;;;;;;20.30;8.07;;;13.70;99.90;;;;;;4995435;28;20026;-77
2023/05/24 00:13:31;;;;;;;12.57;7.13;;;13.60;99.90;;;;;;5007936;28;20029;-77
2023/05/24 00:15:56;;;;;;;11.90;7.70;;;13.60;99.90;;;;;;4993494;28;20030;-78
2023/05/24 00:18:22;;;;;;;11.95;6.80;;;13.60;99.90;;;;;;5010260;28;20049;-78
2023/05/24 00:20:48;;;;;;;11.23;6.25;;;13.60;99.90;;;;;;5013447;28;20036;-78
2023/05/24 00:23:13;;;;;;;14.23;7.45;;;13.60;99.90;;;;;;4995141;28;20026;-79
2023/05/24 00:25:39;;;;;;;13.27;7.05;;;13.50;99.90;;;;;;5011001;28;20027;-78
2023/05/24 00:28:04;;;;;;;13.43;7.85;;;13.50;99.90;;;;;;4995611;28;20038;-77
2023/05/24 00:30:30;;;;;;;13.05;7.97;;;13.60;99.90;;;;;;5011270;28;20010;-79
2023/05/24 00:32:57;;;;;;;13.13;6.90;;;13.50;99.90;;;;;;5011503;28;20030;-77
2023/05/24 00:35:23;;;;;;;10.20;6.28;;;;;;;;;;5013059;28;20026;-78
2023/05/24 00:37:49;;;;;;;10.52;7.03;;;13.50;99.90;;;;;;4996529;28;20010;-78
2023/05/24 00:40:34;;;;;;;10.68;7.00;;;13.50;99.90;;;;;;5011950;28;20026;-77
2023/05/24 00:43:00;;;;;;;11.35;6.15;;;13.40;99.90;;;;;;5011414;28;20026;-78
2023/05/24 00:45:27;;;;;;;9.35;6.03;;;13.40;99.90;;;;;;5010402;28;20026;-77
2023/05/24 00:47:53;;;;;;;11.07;6.80;;;13.40;99.90;;;;;;5009872;28;20049;-78
2023/05/24 00:50:22;;;;;;;12.23;6.38;;;13.40;99.90;;;;;;4994195;28;20050;-77
2023/05/24 00:52:51;;;;;;;14.27;5.68;;;13.40;99.90;;;;;;5010455;28;20030;-77
2023/05/24 00:55:24;;;;;;;11.48;6.30;;;13.30;99.90;;;;;;5009170;28;20088;-77
2023/05/24 00:57:51;;;;;;;11.30;5.25;;;13.30;99.90;;;;;;5009748;28;20077;-77
2023/05/24 01:00:20;;;;;;;9.35;4.97;;;13.20;99.90;;;;;;5008339;28;20066;-77
2023/05/24 01:02:48;;;;;;;8.82;5.10;;;13.20;99.90;;;;;;5010689;28;20026;-77
2023/05/24 01:05:16;;;;;;;11.15;5.38;;;13.10;99.90;;;;;;5008713;28;20101;-78
2023/05/24 01:07:57;;;;;;;7.07;4.57;;;13.10;99.90;;;;;;5007876;28;20506;-76
2023/05/24 01:10:55;;;;;;;8.82;5.82;;;13.10;99.90;;;;;;4989865;28;20527;-77
2023/05/24 01:13:32;;;;;;;11.80;5.82;;;13.10;99.90;;;;;;5005648;28;20025;-77
2023/05/24 01:16:05;;;;;;;9.02;5.20;;;13.00;99.90;;;;;;4992060;28;20037;-78
2023/05/24 01:18:33;;;;;;;8.57;6.05;;;13.00;99.90;;;;;;4992565;28;20514;-77
2023/05/24 01:21:15;;;;;;;9.50;5.25;;;12.90;99.90;;;;;;4993543;28;20027;-77
2023/05/24 01:24:03;;;;;;;8.65;4.68;;;12.90;99.90;;;;;;4991414;28;20089;-78
2023/05/24 01:27:00;;;;;;;9.50;5.68;;;12.90;99.90;;;;;;4992079;28;20022;-78
2023/05/24 01:29:28;;;;;;;7.55;4.75;;;12.80;99.90;;;;;;5011294;28;20061;-78
2023/05/24 01:31:53;;;;;;;7.28;4.32;;;12.70;99.90;;;;;;4996705;28;20066;-78
2023/05/24 01:34:19;;;;;;;7.50;4.30;;;12.80;99.90;;;;;;4993738;28;20033;-77
2023/05/24 01:36:45;;;;;;;8.18;4.78;;;12.70;99.90;;;;;;5011937;28;20105;-77
2023/05/24 01:39:28;;;;;;;7.88;5.20;;;12.70;99.90;;;;;;5010375;28;20041;-78
2023/05/24 01:41:59;;;;;;;9.80;4.47;;;12.70;99.90;;;;;;5015292;28;20276;-78
2023/05/24 01:44:35;;;;;;;8.05;4.72;;;12.70;99.90;;;;;;5009737;28;20018;-78
2023/05/24 01:47:22;;;;;;;10.85;5.13;;;12.70;99.90;;;;;;4993087;28;20033;-77
2023/05/24 01:49:52;;;;;;;7.65;3.97;;;12.60;99.90;;;;;;5013804;28;20107;-77
2023/05/24 01:52:27;;;;;;;9.45;4.93;;;12.70;99.90;;;;;;4994429;28;20034;-77
2023/05/24 01:54:55;;;;;;;11.15;5.28;;;12.70;99.90;;;;;;4999358;28;20041;-77
2023/05/24 01:57:25;;;;;;;11.20;4.45;;;12.70;99.90;;;;;;4996481;28;20010;-77
2023/05/24 01:59:53;;;;;;;7.22;4.68;;;12.70;99.90;;;;;;4994562;28;20025;-77
2023/05/24 02:02:19;;;;;;;7.00;4.20;;;12.60;99.90;;;;;;4994386;28;20061;-78
2023/05/24 02:04:45;;;;;;;11.05;5.13;;;12.60;99.90;;;;;;5013559;28;20035;-78
2023/05/24 02:07:11;;;;;;;9.30;4.70;;;12.60;99.90;;;;;;4992048;28;20025;-78
2023/05/24 02:09:36;;;;;;;7.80;4.38;;;12.60;99.90;;;;;;4993652;28;20078;-80
2023/05/24 02:12:02;;;;;;;7.95;4.72;;;12.60;99.90;;;;;;4997049;28;20433;-78
2023/05/24 02:14:28;;;;;;;7.57;4.47;;;12.60;99.90;;;;;;4994713;28;20029;-78
2023/05/24 02:16:57;;;;;;;9.00;5.45;;;12.70;99.90;;;;;;5013920;28;20045;-78
2023/05/24 02:19:25;;;;;;;7.38;5.20;;;12.60;99.90;;;;;;4995290;28;20360;-78
2023/05/24 02:21:52;;;;;;;7.72;5.05;;;12.60;99.90;;;;;;5012327;28;20033;-78
2023/05/24 02:24:17;;;;;;;7.13;5.05;;;12.50;99.90;;;;;;5009303;28;20022;-78
2023/05/24 02:26:43;;;;;;;8.25;4.75;;;12.50;99.90;;;;;;5012594;28;20030;-77
2023/05/24 02:29:09;;;;;;;6.18;4.53;;;12.60;99.90;;;;;;4995578;28;20073;-78
2023/05/24 02:31:35;;;;;;;8.02;4.68;;;12.50;99.90;;;;;;4991728;28;20023;-79
2023/05/24 02:34:01;;;;;;;10.68;4.75;;;12.60;99.90;;;;;;4996887;28;20033;-77
2023/05/24 02:36:26;;;;;;;8.20;5.15;;;12.50;99.90;;;;;;4993638;28;20030;-77
2023/05/24 02:38:52;;;;;;;6.10;4.32;;;12.50;99.90;;;;;;5008417;28;20038;-78
2023/05/24 02:41:18;;;;;;;11.30;5.47;;;12.50;99.90;;;;;;4991876;28;20030;-78
2023/05/24 02:43:44;;;;;;;11.38;5.13;;;12.40;99.90;;;;;;4992373;28;20094;-77
2023/05/24 02:46:10;;;;;;;8.85;5.32;;;12.40;99.90;;;;;;4992148;28;20026;-77
2023/05/24 02:48:36;;;;;;;10.52;5.30;;;12.30;99.90;;;;;;4992250;28;20022;-77
2023/05/24 02:51:02;;;;;;;13.05;5.85;;;12.30;99.90;;;;;;4993945;28;20073;-78
2023/05/24 02:53:28;;;;;;;9.52;5.03;;;12.20;99.90;;;;;;4998057;28;20030;-78
2023/05/24 02:55:54;;;;;;;9.18;5.20;;;12.30;99.90;;;;;;4994456;28;20010;-78
2023/05/24 02:58:20;;;;;;;7.18;4.38;;;12.20;99.90;;;;;;4991343;28;20037;-77
2023/05/24 03:00:45;;;;;;;9.43;4.97;;;12.20;99.90;;;;;;4994177;28;20026;-76
2023/05/24 03:03:12;;;;;;;9.77;5.60;;;12.20;99.90;;;;;;4993748;28;20051;-78
2023/05/24 03:05:45;;;;;;;8.52;5.18;;;12.20;99.90;;;;;;4996276;28;20058;-77
2023/05/24 03:08:10;;;;;;;9.88;5.40;;;12.20;99.90;;;;;;4994056;28;20086;-77
2023/05/24 03:10:37;;;;;;;7.47;4.07;;;15.50;99.90;;;;;;5008608;28;20023;-78
2023/05/24 03:13:02;;;;;;;14.93;5.68;;;12.30;99.90;;;;;;5009611;28;20393;-78
2023/05/24 03:15:29;;;;;;;6.10;4.35;;;12.10;99.90;;;;;;5008772;28;20034;-77
2023/05/24 03:17:55;;;;;;;9.35;4.18;;;12.20;99.90;;;;;;4994674;28;20011;-78
2023/05/24 03:20:22;;;;;;;7.38;4.45;;;12.10;99.90;;;;;;5011423;28;20010;-78
2023/05/24 03:22:48;;;;;;;9.85;4.90;;;12.10;99.90;;;;;;4991135;28;20081;-77
2023/05/24 03:25:13;;;;;;;9.60;4.75;;;12.00;99.90;;;;;;5007664;28;20034;-77
2023/05/24 03:28:04;;;;;;;10.07;4.40;;;12.10;99.90;;;;;;4994681;28;20026;-78
2023/05/24 03:30:44;;;;;;;12.15;5.72;;;12.10;99.90;;;;;;5000942;28;20002;-78
2023/05/24 03:33:10;;;;;;;8.10;4.65;;;12.10;99.90;;;;;;5013042;23;20069;-78
2023/05/24 03:35:36;;;;;;;8.32;4.78;;;12.20;99.90;;;;;;5016159;28;20133;-78
2023/05/24 03:38:01;;;;;;;7.40;4.35;;;12.20;99.90;;;;;;5013428;28;20110;-78
2023/05/24 03:40:31;;;;;;;8.02;4.28;;;12.20;99.90;;;;;;5014537;28;20026;-78
2023/05/24 03:42:56;;;;;;;;;;;12.10;99.90;;;;;;5029376;28;20034;-78
2023/05/24 03:45:26;;;;;;;8.95;4.20;;;12.00;99.90;;;;;;5013899;28;19978;-78
2023/05/24 03:47:51;;;;;;;11.32;4.75;;;12.10;99.90;;;;;;5013218;28;20045;-78
2023/05/24 03:50:17;;;;;;;7.53;4.65;;;12.10;99.90;;;;;;5013325;28;20018;-77
2023/05/24 03:52:43;;;;;;;9.60;4.97;;;12.20;99.90;;;;;;5010391;28;20038;-77
2023/05/24 03:55:09;;;;;;;5.53;3.88;;;12.10;99.90;;;;;;5026477;28;20061;-78
2023/05/24 03:57:34;;;;;;;12.93;5.05;;;12.10;99.90;;;;;;5011820;28;20046;-77
2023/05/24 04:00:00;;;;;;;6.75;4.10;;;12.10;99.90;;;;;;5014012;28;20007;-77
2023/05/24 04:02:25;;;;;;;8.27;4.45;;;12.10;99.90;;;;;;5014375;28;20023;-78
2023/05/24 04:04:54;;;;;;;7.97;4.60;;;12.10;99.90;;;;;;5013267;28;20030;-77
2023/05/24 04:07:23;;;;;;;12.40;4.97;;;12.10;99.90;;;;;;5029573;28;20086;-78
2023/05/24 04:09:55;;;;;;;6.55;4.03;;;12.10;99.90;;;;;;5012284;28;20018;-78
2023/05/24 04:12:25;;;;;;;6.13;4.35;;;12.10;99.90;;;;;;5028740;28;20041;-79
2023/05/24 04:14:51;;;;;;;9.23;4.20;;;12.10;99.90;;;;;;5027367;28;20039;-78
2023/05/24 04:17:17;;;;;;;10.75;4.75;;;12.00;99.90;;;;;;5007984;28;20025;-78
2023/05/24 04:19:43;;;;;;;6.65;4.28;;;12.00;99.90;;;;;;5014355;28;20034;-78
2023/05/24 04:22:09;;;;;;;11.90;4.35;;;12.10;99.90;;;;;;5013519;28;20023;-77
2023/05/24 04:24:39;;;;;;;6.55;3.70;;;12.00;99.90;;;;;;5011485;28;20125;-78
2023/05/24 04:27:06;;;;;;;10.80;5.10;;;12.00;99.90;;;;;;5011399;28;20023;-79
2023/05/24 04:29:32;;;;;;;7.60;4.03;;;11.90;99.90;;;;;;5010274;28;20006;-77
2023/05/24 04:32:00;;;;;;;8.43;4.25;;;11.90;99.90;;;;;;5013263;28;20029;-77
2023/05/24 04:34:28;;;;;;;7.80;4.03;;;11.90;99.90;;;;;;5025759;28;20037;-77
2023/05/24 04:36:54;;;;;;;11.77;4.45;;;11.90;99.90;;;;;;5030712;28;20045;-78
2023/05/24 04:39:20;;;;;;;12.07;4.55;;;11.80;99.90;;;;;;5015773;28;20025;-78
2023/05/24 04:41:49;;;;;;;7.32;3.60;;;11.80;99.90;;;;;;5010082;28;20013;-77
2023/05/24 04:44:16;;;;;;;7.80;4.43;;;11.90;99.90;;;;;;5008893;28;20068;-77
2023/05/24 04:46:41;;;;;;;7.80;4.50;;;11.80;99.90;;;;;;5012073;28;20034;-78
2023/05/24 04:49:08;;;;;;;10.27;4.10;;;11.80;99.90;;;;;;4996365;28;20017;-78
2023/05/24 04:51:37;;;;;;;9.38;4.63;;;11.70;99.90;;;;;;4996219;28;20057;-77
2023/05/24 04:54:07;;;;;;;11.20;4.53;;;11.80;99.90;;;;;;5009875;28;20010;-78
2023/05/24 04:56:37;;;;;;;5.50;4.20;;;11.80;99.90;;;;;;5006465;28;20090;-77
2023/05/24 04:59:09;;;;;;;5.05;3.42;;;11.80;99.90;;;;;;4986156;28;20267;-78
2023/05/24 05:01:35;;;;;;;5.60;4.25;;;11.60;99.90;;;;;;5000956;28;20010;-78
2023/05/24 05:04:03;;;;;;;6.05;3.50;;;11.70;99.90;;;;;;4974536;28;20174;-79
2023/05/24 05:06:30;;;;;;;7.22;3.83;;;11.70;99.90;;;;;;4973700;28;20116;-78
2023/05/24 05:08:56;;;;;;;6.57;4.15;;;11.70;99.90;;;;;;4990157;28;20415;-79
2023/05/24 05:11:21;;;;;;;9.15;3.65;;;11.70;99.90;;;;;;4990444;28;20038;-78
2023/05/24 05:13:47;;;;;;;9.70;4.57;;;11.70;99.90;;;;;;4989810;28;20045;-78
2023/05/24 05:16:13;;;;;;;6.22;3.60;;;11.70;99.90;;;;;;4973120;28;20501;-79
2023/05/24 05:18:39;;;;;;;12.32;4.30;;;11.60;99.90;;;;;;4976086;28;20041;-77
2023/05/24 05:21:06;;;;;;;7.88;3.78;;;11.70;99.90;;;;;;5006565;28;20055;-77
2023/05/24 05:23:31;;;;;;;5.80;3.92;;;11.70;99.90;;;;;;5007448;28;20026;-78
2023/05/24 05:25:57;;;;;;;9.18;4.53;;;11.60;99.90;;;;;;4992689;28;20058;-77
2023/05/24 05:28:23;;;;;;;7.03;4.20;;;11.70;99.90;;;;;;5008423;28;20026;-77
2023/05/24 05:30:48;;;;;;;9.23;3.65;;;11.70;99.90;;;;;;5006165;28;20038;-77
2023/05/24 05:33:14;;;;;;;9.68;3.97;;;11.70;99.90;;;;;;4989592;28;20049;-79
2023/05/24 05:35:40;;;;;;;7.97;3.17;;;11.70;99.90;;;;;;4975223;28;20030;-79
2023/05/24 05:38:05;;;;;;;6.55;3.50;;;11.70;99.90;;;;;;4999246;28;20034;-79
2023/05/24 05:40:31;;;;;;;9.10;3.78;;;11.70;99.90;;;;;;4982653;28;20045;-79
2023/05/24 05:42:56;;;;;;;6.95;4.25;;;11.80;99.90;;;;;;4998762;28;20081;-81
2023/05/24 05:45:27;;;;;;;6.03;3.53;;;11.80;99.90;;;;;;4979790;28;20117;-76
2023/05/24 05:47:52;;;;;;;12.38;3.83;;;11.90;99.90;;;;;;5007923;28;20010;-76
2023/05/24 05:50:20;;;;;;;12.70;4.50;;;11.80;99.90;;;;;;5008281;28;20042;-78
2023/05/24 05:52:45;;;;;;;6.32;3.78;;;11.90;99.90;;;;;;4984227;28;20030;-80
2023/05/24 05:55:14;;;;;;;4.78;3.25;;;11.90;99.90;;;;;;5001745;28;20045;-78
2023/05/24 05:57:40;;;;;;;5.93;3.50;;;11.90;99.90;;;;;;4986937;28;20022;-77
2023/05/24 06:00:06;;;;;;;9.85;3.83;;;12.00;99.90;;;;;;5015370;28;20070;-79
2023/05/24 06:02:32;;;;;;;6.68;3.90;;;12.10;99.90;;;;;;5010610;28;20022;-78
2023/05/24 06:04:57;;;;;;;7.68;3.95;;;12.10;99.90;;;;;;5009615;28;20105;-78
2023/05/24 06:07:23;;;;;;;3.97;3.10;;;12.10;99.90;;;;;;5010402;28;20112;-78
2023/05/24 06:09:49;;;;;;;5.18;3.38;;;12.20;99.90;;;;;;5011781;28;20058;-79
2023/05/24 06:12:15;;;;;;;6.28;3.25;;;12.30;99.90;;;;;;4995237;28;20405;-78
2023/05/24 06:14:40;;;;;;;9.43;3.40;;;12.30;99.90;;;;;;4991367;28;20033;-79
2023/05/24 06:17:06;;;;;;;5.45;3.17;;;12.20;99.90;;;;;;4994521;28;20124;-78
2023/05/24 06:19:32;;;;;;;6.07;3.38;;;12.30;99.90;;;;;;4993895;28;20052;-78
2023/05/24 06:21:58;;;;;;;7.10;4.00;;;12.40;99.90;;;;;;5009953;28;20060;-77
2023/05/24 06:24:24;;;;;;;8.73;3.80;;;12.50;99.90;;;;;;4994230;28;20026;-78
2023/05/24 06:26:51;;;;;;;10.15;4.10;;;12.70;99.90;;;;;;4994040;28;20029;-78
2023/05/24 06:29:19;;;;;;;6.63;3.40;;;12.60;99.90;;;;;;5012324;28;20475;-78
2023/05/24 06:31:46;;;;;;;8.52;4.18;;;12.50;99.90;;;;;;4994006;28;20032;-79
2023/05/24 06:34:12;;;;;;;6.72;3.22;;;12.50;99.90;;;;;;4993388;28;20077;-78
2023/05/24 06:36:41;;;;;;;7.00;3.70;;;12.50;99.90;;;;;;5013458;28;20066;-78
2023/05/24 06:39:08;;;;;;;11.88;4.60;;;12.60;99.90;;;;;;5012406;28;20026;-77
2023/05/24 06:41:34;;;;;;;5.00;3.30;;;12.60;99.90;;;;;;5014318;28;20026;-78
2023/05/24 06:44:00;;;;;;;8.27;3.47;;;12.70;99.90;;;;;;4995891;28;20022;-78
2023/05/24 06:46:25;;;;;;;14.18;4.10;;;12.60;99.90;;;;;;5013255;28;20099;-77
2023/05/24 06:48:51;;;;;;;8.48;3.85;;;12.40;99.90;;;;;;5012365;28;20026;-77
2023/05/24 06:51:17;;;;;;;6.28;3.58;;;12.10;99.90;;;;;;4995653;28;20032;-78
2023/05/24 06:53:42;;;;;;;7.15;3.50;;;12.10;99.90;;;;;;5013571;28;20037;-78
2023/05/24 06:56:09;;;;;;;9.90;4.15;;;12.10;99.90;;;;;;4996783;28;20042;-78
2023/05/24 06:58:35;;;;;;;6.30;3.58;;;12.00;99.90;;;;;;5014204;28;20471;-77
2023/05/24 07:01:03;;;;;;;7.85;4.68;;;11.90;99.90;;;;;;5015439;28;20261;-77
2023/05/24 07:03:32;;;;;;;7.40;3.47;;;11.90;99.90;;;;;;5013640;28;20501;-78
2023/05/24 07:05:57;;;;;;;12.07;4.57;;;11.90;99.90;;;;;;5012762;28;20029;-77
2023/05/24 07:08:26;;;;;;;9.48;3.78;;;11.90;99.90;;;;;;4994390;28;20072;-77
2023/05/24 07:10:53;;;;;;;4.93;3.25;;;11.90;99.90;;;;;;4994673;28;20498;-77
2023/05/24 07:13:18;;;;;;;13.52;4.78;;;12.10;99.90;;;;;;5012311;28;20026;-79
2023/05/24 07:15:45;;;;;;;8.27;3.83;;;12.00;99.90;;;;;;4994944;28;20045;-78
2023/05/24 07:18:12;;;;;;;7.47;2.97;;;12.00;99.90;;;;;;5012682;28;20029;-79
2023/05/24 07:20:37;;;;;;;10.23;4.70;;;12.00;99.90;;;;;;4994904;28;20117;-78
2023/05/24 07:23:03;;;;;;;12.07;3.40;;;12.00;99.90;;;;;;5012151;28;20440;-78
2023/05/24 07:25:29;;;;;;;6.80;3.30;;;12.00;99.90;;;;;;5011496;28;20088;-78
2023/05/24 07:27:55;;;;;;;11.65;3.83;;;12.00;99.90;;;;;;4994507;28;20245;-78
2023/05/24 07:30:20;;;;;;;9.35;4.03;;;12.10;99.90;;;;;;5012526;28;20483;-78
2023/05/24 07:32:46;;;;;;;12.82;4.75;;;12.00;99.90;;;;;;4994440;28;20057;-78
2023/05/24 07:35:12;;;;;;;10.00;4.70;;;12.10;99.90;;;;;;4994803;28;20042;-78
2023/05/24 07:37:38;;;;;;;7.10;3.38;;;12.10;99.90;;;;;;4995520;28;20033;-79
2023/05/24 07:40:07;;;;;;;9.73;4.13;;;12.20;99.90;;;;;;4994126;28;20045;-76
2023/05/24 07:42:32;;;;;;;9.25;3.78;;;12.20;99.90;;;;;;4993946;28;20025;-79
2023/05/24 07:44:58;;;;;;;10.93;4.88;;;12.10;99.90;;;;;;4994256;28;20026;-78
2023/05/24 07:47:23;;;;;;;12.18;3.95;;;12.30;99.90;;;;;;4994415;28;20318;-78
2023/05/24 07:49:49;;;;;;;9.25;4.18;;;12.30;99.90;;;;;;4994240;28;20025;-78
2023/05/24 07:52:15;;;;;;;6.05;3.42;;;12.20;99.90;;;;;;5011936;28;20105;-78
2023/05/24 07:54:41;;;;;;;8.30;3.95;;;12.40;99.90;;;;;;5014192;28;20025;-77
2023/05/24 07:57:07;;;;;;;9.88;4.47;;;12.40;99.90;;;;;;4997601;28;20050;-77
2023/05/24 07:59:32;;;;;;;16.33;3.88;;;12.60;99.90;;;;;;4997116;28;20026;-78
2023/05/24 08:02:02;;;;;;;8.48;3.70;;;12.80;99.90;;;;;;4998038;28;20064;-77
2023/05/24 08:04:28;;;;;;;8.77;4.97;;;12.60;99.90;;;;;;5016789;28;20018;-79
2023/05/24 08:06:54;;;;;;;15.45;3.72;;;12.90;99.90;;;;;;5012031;28;20026;-78
2023/05/24 08:09:21;;;;;;;12.20;4.40;;;13.00;99.90;;;;;;4975468;28;20388;-77
2023/05/24 08:11:47;;;;;;;7.40;3.33;;;13.10;99.90;;;;;;4990787;28;20506;-78
2023/05/24 08:14:12;;;;;;;10.20;3.58;;;13.10;99.90;;;;;;4976364;28;20027;-79
2023/05/24 08:16:38;;;;;;;10.00;3.35;;;12.90;99.90;;;;;;4993305;28;20517;-78
2023/05/24 08:19:03;;;;;;;7.65;3.90;;;12.90;99.90;;;;;;4992350;28;20454;-77
2023/05/24 08:21:29;;;;;;;8.13;3.65;;;12.60;99.90;;;;;;4990787;28;20125;-77
2023/05/24 08:23:55;;;;;;;8.55;3.95;;;12.50;99.90;;;;;;4993123;28;20459;-78
2023/05/24 08:26:23;;;;;;;14.00;4.38;;;12.40;99.90;;;;;;4990648;28;20026;-78
2023/05/24 08:28:48;;;;;;;11.90;4.93;;;12.40;99.90;;;;;;4974028;28;20521;-77
2023/05/24 08:31:15;;;;;;;8.95;3.90;;;12.40;99.90;;;;;;4975911;28;20057;-77
2023/05/24 08:33:41;;;;;;;8.90;3.85;;;12.30;99.90;;;;;;4991693;28;20141;-77
2023/05/24 08:36:07;;;;;;;9.50;4.25;;;12.20;99.90;;;;;;4991658;28;20088;-78
2023/05/24 08:38:33;;;;;;;10.93;3.58;;;12.30;99.90;;;;;;4990498;28;20049;-77
2023/05/24 08:40:59;;;;;;;13.82;4.75;;;12.30;99.90;;;;;;4991689;28;20511;-76
2023/05/24 08:43:26;;;;;;;13.38;4.43;;;12.20;99.90;;;;;;4991042;28;20037;-77
2023/05/24 08:45:54;;;;;;;8.15;3.50;;;12.10;99.90;;;;;;4991366;28;20022;-78
2023/05/24 08:48:20;;;;;;;4.85;3.50;;;12.00;99.90;;;;;;4989687;28;20054;-78
2023/05/24 08:50:46;;;;;;;11.40;4.32;;;12.00;99.90;;;;;;4989830;28;20054;-78
2023/05/24 08:53:12;;;;;;;8.32;4.13;;;11.90;99.90;;;;;;4991175;28;20080;-79
2023/05/24 08:55:38;;;;;;;8.13;5.03;;;11.70;99.90;;;;;;4991737;28;20026;-77
2023/05/24 08:58:07;;;;;;;11.18;4.60;;;11.60;99.90;;;;;;4991246;28;20054;-78
2023/05/24 09:00:32;;;;;;;10.95;5.55;;;11.60;99.90;;;;;;4990381;28;20042;-77
2023/05/24 09:02:58;;;;;;;9.43;4.35;;;11.60;99.90;;;;;;4992045;28;20041;-77
2023/05/24 09:05:24;;;;;;;11.50;5.18;;;11.50;99.90;;;;;;4992318;28;20026;-75
2023/05/24 09:07:51;;;;;;;7.75;4.97;;;11.50;99.90;;;;;;4991371;28;20031;-78
2023/05/24 09:10:20;;;;;;;13.15;5.25;;;11.50;99.90;;;;;;4976298;28;20030;-77
2023/05/24 09:12:54;;;;;;;8.25;4.95;;;11.60;99.90;;;;;;4979584;28;20023;-79
2023/05/24 09:15:20;;;;;;;25.42;5.25;;;11.80;99.90;;;;;;4974772;28;20046;-78
2023/05/24 09:17:46;;;;;;;9.48;4.25;;;12.00;99.90;;;;;;4974085;28;20050;-78
2023/05/24 09:20:12;;;;;;;16.80;5.57;;;12.00;99.90;;;;;;4990754;28;20031;-78
2023/05/24 09:22:41;;;;;;;10.90;5.57;;;12.00;99.90;;;;;;4975445;28;20380;-77
2023/05/24 09:25:12;;;;;;;9.10;4.78;;;11.90;99.90;;;;;;4991203;28;20153;-78
2023/05/24 09:27:38;;;;;;;11.57;4.03;;;11.60;99.90;;;;;;4990590;28;20130;-77
2023/05/24 09:30:22;;;;;;;22.67;5.57;;;11.90;99.90;;;;;;4992856;28;20623;-77
2023/05/24 09:32:58;;;;;;;16.38;5.05;;;11.80;99.90;;;;;;4995449;28;20500;-79
2023/05/24 09:35:27;;;;;;;10.90;6.20;;;11.70;99.90;;;;;;4972697;28;20062;-78
2023/05/24 09:37:59;;;;;;;15.85;5.35;;;11.60;99.90;;;;;;4990719;28;20023;-78
2023/05/24 09:40:25;;;;;;;10.43;5.45;;;11.70;99.90;;;;;;4990390;28;20034;-78
2023/05/24 09:43:07;;;;;;;8.90;4.65;;;11.60;99.90;;;;;;4973755;28;20391;-79
2023/05/24 09:45:37;;;;;;;15.15;6.35;;;11.50;99.90;;;;;;4973111;28;20061;-78
2023/05/24 09:48:10;;;;;;;17.85;6.68;;;11.50;99.90;;;;;;4990510;28;20471;-78
2023/05/24 09:50:35;;;;;;;12.48;5.78;;;11.50;99.90;;;;;;4977274;28;20033;-78
2023/05/24 09:53:02;;;;;;;11.13;5.22;;;11.50;99.90;;;;;;4983135;28;20422;-78
2023/05/24 09:55:28;;;;;;;19.13;6.07;;;11.50;99.90;;;;;;4995015;28;20026;-76
2023/05/24 09:58:07;;;;;;;11.18;4.93;;;11.50;99.90;;;;;;4995743;28;20080;-79
2023/05/24 10:00:40;;;;;;;11.52;5.07;;;11.50;99.90;;;;;;4997935;28;20134;-78
2023/05/24 10:03:07;;;;;;;8.60;5.88;;;11.60;99.90;;;;;;4998768;28;20161;-77
2023/05/24 10:05:34;;;;;;;13.25;5.55;;;11.80;99.90;;;;;;4986943;28;20038;-77
2023/05/24 10:08:03;;;;;;;17.30;5.78;;;12.10;99.90;;;;;;4986449;28;20022;-76
2023/05/24 10:10:31;;;;;;;10.68;4.80;;;12.40;99.90;;;;;;4983543;28;20029;-76
2023/05/24 10:12:58;;;;;;;9.80;4.72;;;12.70;99.90;;;;;;4994598;28;20034;-76
2023/05/24 10:15:25;;;;;;;10.70;5.63;;;12.90;99.90;;;;;;4994728;28;20517;-76
2023/05/24 10:17:54;;;;;;;17.65;5.75;;;13.00;99.90;;;;;;4979319;28;20031;-77
2023/05/24 10:20:21;;;;;;;11.00;5.53;;;13.00;99.90;;;;;;4995436;28;20022;-76
2023/05/24 10:22:54;;;;;;;13.07;4.75;;;13.00;99.90;;;;;;4978644;28;20186;-76
2023/05/24 10:25:26;;;;;;;13.13;6.50;;;13.00;99.90;;;;;;4991186;28;20483;-76
2023/05/24 10:28:03;;;;;;;10.15;4.97;;;13.00;99.90;;;;;;5007849;28;20030;-76
2023/05/24 10:30:29;;;;;;;17.67;5.60;;;12.90;99.90;;;;;;5003344;28;20025;-77
2023/05/24 10:32:55;;;;;;;8.18;4.82;;;12.80;99.90;;;;;;5016066;28;20104;-76
2023/05/24 10:35:23;;;;;;;8.52;4.28;;;12.60;99.90;;;;;;5009940;28;20568;-76
2023/05/24 10:37:48;;;;;;;16.63;4.53;;;12.60;99.90;;;;;;5000337;28;20030;-77
2023/05/24 10:40:38;;;;;;;7.20;4.43;;;12.50;99.90;;;;;;5037732;28;20037;-79
2023/05/24 10:43:05;;;;;;;9.32;5.28;;;12.30;99.90;;;;;;5022453;28;20042;-82
2023/05/24 10:45:51;;;;;;;10.02;3.60;;;12.40;99.90;;;;;;5034202;28;20060;-76
2023/05/24 10:48:49;;;;;;;18.05;4.35;;;12.40;99.90;;;;;;5035019;28;20040;-76
2023/05/24 10:51:59;;;;;;;9.48;4.05;;;12.50;99.90;;;;;;5019024;28;20021;-76
2023/05/24 10:54:26;;;;;;;11.02;5.72;;;12.50;99.90;;;;;;4956998;29;20035;-76
2023/05/24 10:56:55;;;;;;;8.30;4.72;;;12.50;99.90;;;;;;5027774;28;20034;-76
2023/05/24 10:59:29;;;;;;;7.93;4.40;;;12.50;99.90;;;;;;5037639;28;20025;-76
2023/05/24 11:01:56;;;;;;;9.35;4.47;;;12.70;99.90;;;;;;5018196;28;20028;-76
2023/05/24 11:04:46;;;;;;;12.57;4.38;;;12.80;99.90;;;;;;5037510;28;20017;-76
2023/05/24 11:07:14;;;;;;;10.15;4.70;;;12.80;99.90;;;;;;5036290;28;20009;-76
2023/05/24 11:09:46;;;;;;;15.77;4.85;;;12.80;99.90;;;;;;5038605;28;20014;-77
2023/05/24 11:12:22;;;;;;;11.50;4.68;;;12.70;99.90;;;;;;5015846;28;20330;-76
2023/05/24 11:14:50;;;;;;;12.57;3.65;;;12.90;99.90;;;;;;5004527;28;20042;-78
2023/05/24 11:17:17;;;;;;;20.38;5.65;;;13.00;99.90;;;;;;4982695;28;20393;-78
2023/05/24 11:19:52;;;;;;;13.23;4.25;;;13.20;99.90;;;;;;4982704;28;20072;-77
2023/05/24 11:22:23;;;;;;;10.77;4.60;;;13.40;99.90;;;;;;5002820;28;20027;-78
2023/05/24 11:24:51;;;;;;;16.98;5.47;;;13.40;99.90;;;;;;4999557;28;20046;-76
2023/05/24 11:27:16;;;;;;;17.85;5.45;;;13.50;99.90;;;;;;4979598;28;20033;-76
2023/05/24 11:29:44;;;;;;;13.05;3.92;;;13.50;99.90;;;;;;5004445;28;20022;-76
2023/05/24 11:32:17;;;;;;;14.00;3.80;;;13.50;99.90;;;;;;4989843;28;20165;-76
2023/05/24 11:34:47;;;;;;;12.27;4.53;;;13.80;99.90;;;;;;5001856;28;20029;-76
2023/05/24 11:37:14;;;;;;;7.38;3.67;;;13.80;99.90;;;;;;5026958;28;20266;-76
2023/05/24 11:39:40;;;;;;;12.93;5.07;;;14.00;99.90;;;;;;5022459;28;20018;-76
2023/05/24 11:42:09;;;;;;;9.35;4.20;;;14.10;99.90;;;;;;4988010;28;20097;-76
2023/05/24 11:44:38;;;;;;;6.97;3.92;;;14.10;99.90;;;;;;4992595;28;20030;-76
2023/05/24 11:47:06;;;;;;;14.68;4.78;;;14.30;99.90;;;;;;4992737;28;20022;-78
2023/05/24 11:49:33;;;;;;;10.00;3.90;;;14.60;99.90;;;;;;4975290;28;20069;-79
2023/05/24 11:52:00;;;;;;;16.58;4.65;;;14.80;99.90;;;;;;4991612;28;20014;-79
2023/05/24 11:54:27;;;;;;;14.27;4.50;;;14.80;99.90;;;;;;4983281;28;20483;-77
2023/05/24 11:56:53;;;;;;;11.45;4.38;;;14.70;99.90;;;;;;4999655;28;20097;-76
2023/05/24 11:59:24;;;;;;;10.07;4.10;;;14.70;99.90;;;;;;4995274;28;20100;-77
2023/05/24 12:01:59;;;;;;;10.57;3.53;;;14.60;99.90;;;;;;4995887;28;20049;-77
2023/05/24 12:04:25;;;;;;;15.88;4.60;;;14.50;99.90;;;;;;4997526;28;20101;-77
2023/05/24 12:06:50;;;;;;;9.95;5.53;;;14.60;99.90;;;;;;4997152;28;20054;-77
2023/05/24 12:09:17;;;;;;;7.63;4.35;;;14.50;99.90;;;;;;4997117;28;20034;-76
2023/05/24 12:11:46;;;;;;;9.80;3.85;;;14.50;99.90;;;;;;5006670;28;20022;-76
2023/05/24 12:14:32;;;;;;;15.82;4.93;;;14.40;99.90;;;;;;4990882;28;20041;-76
2023/05/24 12:16:59;;;;;;;13.32;4.45;;;14.20;99.90;;;;;;4991976;28;20042;-77
2023/05/24 12:19:29;;;;;;;11.13;4.78;;;14.70;99.90;;;;;;4996492;28;20018;-77
2023/05/24 12:21:56;;;;;;;14.30;4.10;;;15.00;99.90;;;;;;4993227;28;20026;-78
2023/05/24 12:24:23;;;;;;;13.43;4.43;;;15.50;99.90;;;;;;5007702;28;20042;-78
2023/05/24 12:26:49;;;;;;;9.05;3.97;;;16.00;99.90;;;;;;5003246;28;20030;-79
2023/05/24 12:29:16;;;;;;;5.53;3.95;;;16.40;99.90;;;;;;4978553;28;20032;-80
2023/05/24 12:31:46;;;;;;;12.90;4.75;;;17.10;99.90;;;;;;4997517;28;20022;-78
2023/05/24 12:34:12;;;;;;;8.38;4.43;;;17.40;97.50;;;;;;4996260;28;20054;-78
2023/05/24 12:36:38;;;;;;;13.00;3.88;;;17.40;94.10;;;;;;4998027;28;20038;-79
2023/05/24 12:39:21;;;;;;;9.98;4.50;;;17.80;94.70;;;;;;4979431;28;20033;-75
2023/05/24 12:41:52;;;;;;;10.95;4.40;;;18.10;93.80;;;;;;4975065;28;20125;-78
2023/05/24 12:44:30;;;;;;;9.20;4.20;;;18.30;89.40;;;;;;4989250;28;20029;-78
2023/05/24 12:46:57;;;;;;;11.05;4.57;;;18.20;88.70;;;;;;5019857;28;20018;-78
2023/05/24 12:49:24;;;;;;;7.95;3.78;;;18.40;86.70;;;;;;4998556;28;20042;-79